createdAt,value
2019-05-05T00:01:08.262Z,99398.33
2019-05-05T00:03:47.156Z,99397.19
2019-05-05T00:06:18.455Z,99400.61
2019-05-05T00:08:49.503Z,99404.59
2019-05-05T00:11:32.484Z,99404.63
2019-05-05T00:14:10.385Z,99410.93
2019-05-05T00:16:48.424Z,99411.21
2019-05-05T00:19:30.692Z,99416.86
2019-05-05T00:21:55.030Z,99418.08
2019-05-05T00:24:25.552Z,99427.20
2019-05-05T00:26:58.600Z,99426.59
2019-05-05T00:29:29.222Z,99426.38
2019-05-05T00:31:59.896Z,99425.78
2019-05-05T00:34:30.617Z,99424.07
2019-05-05T00:37:04.458Z,99423.51
2019-05-05T00:39:34.646Z,99424.34
2019-05-05T00:42:05.693Z,99429.97
2019-05-05T00:44:36.446Z,99418.46
2019-05-05T00:47:08.618Z,99422.27
2019-05-05T00:49:46.473Z,99419.05
2019-05-05T00:52:14.374Z,99418.67
2019-05-05T00:54:45.213Z,99424.95
2019-05-05T00:57:16.426Z,99427.34
2019-05-05T00:59:47.113Z,99424.67
2019-05-05T01:02:26.771Z,99420.09
2019-05-05T01:04:59.074Z,99423.23
2019-05-05T01:07:31.474Z,99417.78
2019-05-05T01:10:02.443Z,99422.10
2019-05-05T01:12:34.872Z,99417.55
2019-05-05T01:15:06.326Z,99417.37
2019-05-05T01:17:36.952Z,99414.33
2019-05-05T01:20:07.695Z,99418.94
2019-05-05T01:22:38.333Z,99423.36
2019-05-05T01:25:09.043Z,99427.23
2019-05-05T01:27:39.625Z,99422.34
2019-05-05T01:30:16.345Z,99427.86
2019-05-05T01:32:57.847Z,99435.03
2019-05-05T01:35:29.561Z,99433.20
2019-05-05T01:38:01.719Z,99432.41
2019-05-05T01:40:35.356Z,99432.59
2019-05-05T01:43:06.231Z,99439.76
2019-05-05T01:45:37.166Z,99435.48
2019-05-05T01:48:08.445Z,99446.34
2019-05-05T01:50:40.669Z,99443.88
2019-05-05T01:53:11.295Z,99442.36
2019-05-05T01:55:45.173Z,99440.58
2019-05-05T01:58:16.370Z,99439.72
2019-05-05T02:00:46.989Z,99444.38
2019-05-05T02:03:17.610Z,99443.05
2019-05-05T02:05:48.938Z,99446.08
2019-05-05T02:08:20.831Z,99446.79
2019-05-05T02:10:51.417Z,99444.48
2019-05-05T02:13:22.443Z,99441.28
2019-05-05T02:15:55.419Z,99451.91
2019-05-05T02:18:29.179Z,99453.06
2019-05-05T02:21:05.124Z,99454.92
2019-05-05T02:23:37.585Z,99454.63
2019-05-05T02:26:08.912Z,99454.13
2019-05-05T02:28:47.399Z,99462.39
2019-05-05T02:31:25.298Z,99464.94
2019-05-05T02:33:56.845Z,99463.06
2019-05-05T02:36:28.615Z,99464.94
2019-05-05T02:38:59.322Z,99461.16
2019-05-05T02:41:30.370Z,99468.09
2019-05-05T02:44:01.541Z,99471.73
2019-05-05T02:46:41.175Z,99472.31
2019-05-05T02:49:14.903Z,99467.34
2019-05-05T02:51:47.190Z,99467.50
2019-05-05T02:54:19.880Z,99475.11
2019-05-05T02:56:54.200Z,99475.42
2019-05-05T02:59:29.512Z,99476.72
2019-05-05T03:02:04.333Z,99474.66
2019-05-05T03:04:35.139Z,99479.11
2019-05-05T03:07:09.100Z,99477.40
2019-05-05T03:09:41.064Z,99486.92
2019-05-05T03:12:14.764Z,99485.18
2019-05-05T03:14:47.106Z,99480.57
2019-05-05T03:17:19.874Z,99483.73
2019-05-05T03:19:53.393Z,99487.56
2019-05-05T03:22:25.136Z,99488.28
2019-05-05T03:24:57.351Z,99497.24
2019-05-05T03:27:30.763Z,99497.62
2019-05-05T03:30:04.676Z,99493.98
2019-05-05T03:32:35.957Z,99501.80
2019-05-05T03:35:06.664Z,99496.52
2019-05-05T03:37:37.658Z,99497.37
2019-05-05T03:40:10.794Z,99500.52
2019-05-05T03:42:44.297Z,99504.78
2019-05-05T03:45:19.727Z,99508.72
2019-05-05T03:47:51.030Z,99517.36
2019-05-05T03:50:23.292Z,99520.81
2019-05-05T03:52:55.944Z,99523.34
2019-05-05T03:55:26.558Z,99523.55
2019-05-05T03:57:57.303Z,99521.94
2019-05-05T04:00:40.306Z,99521.45
2019-05-05T04:03:11.057Z,99525.58
2019-05-05T04:05:46.992Z,99532.99
2019-05-05T04:08:17.737Z,99529.61
2019-05-05T04:10:50.934Z,99536.98
2019-05-05T04:13:24.155Z,99529.64
2019-05-05T04:16:06.675Z,99541.66
2019-05-05T04:18:54.213Z,99533.59
2019-05-05T04:21:33.605Z,99543.78
2019-05-05T04:23:58.282Z,99535.59
2019-05-05T04:26:29.121Z,99542.92
2019-05-05T04:29:02.267Z,99546.01
2019-05-05T04:31:34.546Z,99546.75
2019-05-05T04:34:05.311Z,99549.66
2019-05-05T04:36:35.916Z,99547.28
2019-05-05T04:39:07.874Z,99557.38
2019-05-05T04:41:38.683Z,99557.04
2019-05-05T04:44:12.014Z,99545.00
2019-05-05T04:46:46.365Z,99549.17
2019-05-05T04:49:23.388Z,99555.62
2019-05-05T04:51:58.540Z,99551.84
2019-05-05T04:54:30.795Z,99553.08
2019-05-05T04:57:01.487Z,99562.73
2019-05-05T04:59:34.048Z,99559.02
2019-05-05T05:02:06.436Z,99556.44
2019-05-05T05:04:44.944Z,99552.61
2019-05-05T05:07:16.697Z,99549.72
2019-05-05T05:09:47.373Z,99560.25
2019-05-05T05:12:19.120Z,99559.77
2019-05-05T05:14:51.297Z,99560.05
2019-05-05T05:17:24.931Z,99558.19
2019-05-05T05:19:55.836Z,99556.01
2019-05-05T05:22:26.472Z,99561.45
2019-05-05T05:24:57.062Z,99572.39
2019-05-05T05:27:27.838Z,99573.37
2019-05-05T05:30:04.528Z,99574.11
2019-05-05T05:32:36.353Z,99579.33
2019-05-05T05:35:09.222Z,99579.33
2019-05-05T05:37:44.580Z,99579.38
2019-05-05T05:40:18.382Z,99580.94
2019-05-05T05:42:50.075Z,99582.61
2019-05-05T05:45:36.055Z,99582.14
2019-05-05T05:48:23.691Z,99582.84
2019-05-05T05:50:56.092Z,99582.87
2019-05-05T05:53:26.692Z,99577.73
2019-05-05T05:55:59.112Z,99576.86
2019-05-05T05:58:29.926Z,99578.66
2019-05-05T06:01:04.989Z,99573.41
2019-05-05T06:03:36.307Z,99578.73
2019-05-05T06:06:06.952Z,99578.88
2019-05-05T06:08:37.694Z,99576.84
2019-05-05T06:11:08.339Z,99577.13
2019-05-05T06:13:40.259Z,99577.77
2019-05-05T06:16:11.521Z,99570.64
2019-05-05T06:18:43.839Z,99574.87
2019-05-05T06:21:14.448Z,99570.61
2019-05-05T06:23:45.075Z,99574.41
2019-05-05T06:26:15.672Z,99558.54
2019-05-05T06:28:46.644Z,99569.75
2019-05-05T06:31:17.376Z,99562.55
2019-05-05T06:33:48.925Z,99557.37
2019-05-05T06:36:20.020Z,99565.19
2019-05-05T06:38:53.789Z,99557.32
2019-05-05T06:41:30.209Z,99564.28
2019-05-05T06:44:05.228Z,99552.05
2019-05-05T06:46:44.984Z,99554.38
2019-05-05T06:49:15.635Z,99561.70
2019-05-05T06:51:46.265Z,99558.98
2019-05-05T06:54:16.845Z,99556.63
2019-05-05T06:56:48.495Z,99560.94
2019-05-05T06:59:19.198Z,99560.80
2019-05-05T07:01:49.932Z,99563.78
2019-05-05T07:04:24.389Z,99561.63
2019-05-05T07:06:57.333Z,99562.94
2019-05-05T07:09:29.650Z,99569.19
2019-05-05T07:12:00.257Z,99572.02
2019-05-05T07:14:31.052Z,99576.08
2019-05-05T07:17:04.897Z,99569.16
2019-05-05T07:19:35.299Z,99566.67
2019-05-05T07:22:06.037Z,99570.64
2019-05-05T07:24:37.022Z,99568.83
2019-05-05T07:27:07.936Z,99574.91
2019-05-05T07:29:38.541Z,99565.63
2019-05-05T07:32:10.466Z,99564.66
2019-05-05T07:34:45.744Z,99561.06
2019-05-05T07:37:17.663Z,99567.23
2019-05-05T07:39:50.002Z,99564.69
2019-05-05T07:42:20.712Z,99566.78
2019-05-05T07:44:52.141Z,99565.21
2019-05-05T07:47:23.825Z,99557.35
2019-05-05T07:49:54.700Z,99570.42
2019-05-05T07:52:25.324Z,99566.85
2019-05-05T07:54:59.042Z,99567.20
2019-05-05T07:57:31.002Z,99568.60
2019-05-05T08:00:02.736Z,99574.13
2019-05-05T08:02:36.072Z,99570.88
2019-05-05T08:05:08.477Z,99566.34
2019-05-05T08:07:44.688Z,99568.72
2019-05-05T08:10:16.551Z,99565.45
2019-05-05T08:12:48.699Z,99564.97
2019-05-05T08:15:21.369Z,99560.66
2019-05-05T08:18:09.017Z,99563.24
2019-05-05T08:20:44.334Z,99563.77
2019-05-05T08:23:30.310Z,99550.18
2019-05-05T08:25:58.415Z,99551.51
2019-05-05T08:28:35.119Z,99553.72
2019-05-05T08:31:11.811Z,99553.33
2019-05-05T08:33:44.201Z,99538.84
2019-05-05T08:36:14.841Z,99546.12
2019-05-05T08:38:45.677Z,99535.09
2019-05-05T08:41:17.326Z,99535.14
2019-05-05T08:43:47.966Z,99541.66
2019-05-05T08:46:18.488Z,99535.86
2019-05-05T08:48:49.136Z,99527.06
2019-05-05T08:51:19.757Z,99527.98
2019-05-05T08:53:50.483Z,99512.64
2019-05-05T08:56:21.336Z,99527.30
2019-05-05T08:58:54.353Z,99524.88
2019-05-05T09:01:24.440Z,99526.13
2019-05-05T09:03:55.058Z,99526.62
2019-05-05T09:06:25.787Z,99525.41
2019-05-05T09:08:56.327Z,99513.75
2019-05-05T09:11:26.956Z,99516.72
2019-05-05T09:13:57.604Z,99514.85
2019-05-05T09:16:28.388Z,99509.72
2019-05-05T09:19:06.643Z,99505.69
2019-05-05T09:21:37.359Z,99513.15
2019-05-05T09:24:28.174Z,99504.23
2019-05-05T09:27:00.486Z,99493.45
2019-05-05T09:29:43.770Z,99489.31
2019-05-05T09:32:14.276Z,99496.55
2019-05-05T09:34:44.896Z,99487.70
2019-05-05T09:37:15.587Z,99487.92
2019-05-05T09:39:46.232Z,99486.86
2019-05-05T09:42:16.902Z,99488.02
2019-05-05T09:44:47.649Z,99481.41
2019-05-05T09:47:24.008Z,99477.45
2019-05-05T09:49:55.024Z,99470.09
2019-05-05T09:52:25.671Z,99482.38
2019-05-05T09:54:57.239Z,99473.12
2019-05-05T09:57:28.257Z,99475.90
2019-05-05T10:00:00.496Z,99468.45
2019-05-05T10:02:31.497Z,99472.51
2019-05-05T10:05:03.990Z,99481.36
2019-05-05T10:07:34.675Z,99470.81
2019-05-05T10:10:06.419Z,99475.18
2019-05-05T10:12:37.137Z,99462.80
2019-05-05T10:15:08.780Z,99462.55
2019-05-05T10:17:39.431Z,99462.33
2019-05-05T10:20:10.111Z,99462.67
2019-05-05T10:22:40.693Z,99465.73
2019-05-05T10:25:29.536Z,99466.45
2019-05-05T10:28:00.357Z,99460.87
2019-05-05T10:30:31.358Z,99463.86
2019-05-05T10:33:03.787Z,99460.68
2019-05-05T10:35:36.189Z,99460.68
2019-05-05T10:38:06.859Z,99446.45
2019-05-05T10:40:38.369Z,99448.41
2019-05-05T10:43:09.096Z,99460.31
2019-05-05T10:45:39.931Z,99460.31
2019-05-05T10:48:10.668Z,99448.61
2019-05-05T10:50:41.574Z,99443.27
2019-05-05T10:53:13.652Z,99451.56
2019-05-05T10:55:45.223Z,99451.56
2019-05-05T10:58:15.802Z,99442.16
2019-05-05T11:00:51.088Z,99440.84
2019-05-05T11:03:23.744Z,99424.83
2019-05-05T11:05:54.954Z,99417.31
2019-05-05T11:08:25.695Z,99417.31
2019-05-05T11:10:57.872Z,99425.45
2019-05-05T11:13:28.759Z,99426.54
2019-05-05T11:15:59.375Z,99426.54
2019-05-05T11:18:29.970Z,99424.48
2019-05-05T11:21:00.861Z,99406.19
2019-05-05T11:23:31.530Z,99428.09
2019-05-05T11:26:03.906Z,99428.09
2019-05-05T11:28:34.638Z,99424.08
2019-05-05T11:31:05.467Z,99412.70
2019-05-05T11:33:43.834Z,99415.22
2019-05-05T11:36:19.037Z,99415.81
2019-05-05T11:38:53.531Z,99412.84
2019-05-05T11:41:24.253Z,99407.84
2019-05-05T11:43:54.981Z,99403.22
2019-05-05T11:46:25.636Z,99403.94
2019-05-05T11:48:56.380Z,99412.52
2019-05-05T11:51:27.005Z,99412.19
2019-05-05T11:53:57.624Z,99412.19
2019-05-05T11:56:28.302Z,99405.10
2019-05-05T11:58:59.050Z,99410.78
2019-05-05T12:01:30.901Z,99405.39
2019-05-05T12:04:04.914Z,99401.81
2019-05-05T12:06:38.170Z,99391.44
2019-05-05T12:09:13.871Z,99391.44
2019-05-05T12:11:44.468Z,99394.25
2019-05-05T12:14:16.658Z,99387.58
2019-05-05T12:16:47.351Z,99390.07
2019-05-05T12:19:18.171Z,99390.07
2019-05-05T12:21:48.823Z,99391.64
2019-05-05T12:24:24.654Z,99397.43
2019-05-05T12:26:56.478Z,99382.53
2019-05-05T12:29:27.094Z,99382.53
2019-05-05T12:31:58.506Z,99389.88
2019-05-05T12:34:30.671Z,99375.66
2019-05-05T12:37:05.933Z,99378.66
2019-05-05T12:39:37.788Z,99373.22
2019-05-05T12:42:09.602Z,99372.02
2019-05-05T12:44:42.665Z,99372.02
2019-05-05T12:47:14.885Z,99369.28
2019-05-05T12:49:48.732Z,99372.77
2019-05-05T12:52:19.926Z,99366.14
2019-05-05T12:54:54.498Z,99370.03
2019-05-05T12:57:26.041Z,99364.81
2019-05-05T12:59:58.204Z,99373.31
2019-05-05T13:02:35.591Z,99374.84
2019-05-05T13:05:08.135Z,99372.55
2019-05-05T13:07:39.142Z,99366.84
2019-05-05T13:10:13.824Z,99356.67
2019-05-05T13:12:44.875Z,99367.38
2019-05-05T13:15:18.657Z,99367.13
2019-05-05T13:17:51.297Z,99362.85
2019-05-05T13:20:30.793Z,99365.53
2019-05-05T13:23:19.472Z,99358.20
2019-05-05T13:26:09.683Z,99350.22
2019-05-05T13:28:40.424Z,99358.13
2019-05-05T13:31:11.101Z,99355.55
2019-05-05T13:33:44.063Z,99357.20
2019-05-05T13:36:15.407Z,99352.03
2019-05-05T13:38:47.633Z,99359.28
2019-05-05T13:41:18.649Z,99355.31
2019-05-05T13:43:51.560Z,99358.95
2019-05-05T13:46:25.395Z,99348.73
2019-05-05T13:48:58.069Z,99347.00
2019-05-05T13:51:29.346Z,99357.67
2019-05-05T13:54:01.380Z,99349.11
2019-05-05T13:56:33.624Z,99355.92
2019-05-05T13:59:05.843Z,99351.92
2019-05-05T14:01:38.980Z,99351.28
2019-05-05T14:04:11.172Z,99351.28
2019-05-05T14:06:44.483Z,99350.42
2019-05-05T14:09:16.678Z,99345.28
2019-05-05T14:11:47.532Z,99345.28
2019-05-05T14:14:20.309Z,99346.59
2019-05-05T14:16:53.921Z,99355.59
2019-05-05T14:19:26.738Z,99348.59
2019-05-05T14:21:58.295Z,99357.88
2019-05-05T14:24:39.777Z,99351.52
2019-05-05T14:27:10.714Z,99354.44
2019-05-05T14:29:45.673Z,99343.61
2019-05-05T14:32:21.261Z,99352.06
2019-05-05T14:34:59.466Z,99356.02
2019-05-05T14:37:34.062Z,99355.09
2019-05-05T14:40:08.568Z,99351.27
2019-05-05T14:42:39.442Z,99347.63
2019-05-05T14:45:12.139Z,99352.37
2019-05-05T14:47:44.167Z,99357.36
2019-05-05T14:50:15.100Z,99352.50
2019-05-05T14:52:45.894Z,99353.02
2019-05-05T14:55:16.664Z,99352.59
2019-05-05T14:57:50.427Z,99351.90
2019-05-05T15:00:24.205Z,99359.14
2019-05-05T15:02:55.065Z,99354.23
2019-05-05T15:05:44.462Z,99358.12
2019-05-05T15:08:16.609Z,99349.03
2019-05-05T15:10:54.841Z,99353.44
2019-05-05T15:13:25.439Z,99348.03
2019-05-05T15:15:56.051Z,99354.97
2019-05-05T15:18:26.726Z,99354.72
2019-05-05T15:20:59.170Z,99348.96
2019-05-05T15:23:29.884Z,99348.80
2019-05-05T15:26:00.632Z,99352.02
2019-05-05T15:28:33.501Z,99344.59
2019-05-05T15:31:07.933Z,99346.63
2019-05-05T15:33:41.123Z,99346.57
2019-05-05T15:36:13.813Z,99350.77
2019-05-05T15:38:44.931Z,99349.88
2019-05-05T15:41:15.556Z,99353.57
2019-05-05T15:43:46.186Z,99353.20
2019-05-05T15:46:16.774Z,99349.25
2019-05-05T15:48:47.487Z,99346.58
2019-05-05T15:51:18.200Z,99343.20
2019-05-05T15:53:50.492Z,99358.89
2019-05-05T15:56:21.643Z,99347.88
2019-05-05T15:58:53.129Z,99343.92
2019-05-05T16:01:25.851Z,99350.45
2019-05-05T16:03:56.598Z,99353.20
2019-05-05T16:06:30.277Z,99344.72
2019-05-05T16:09:01.471Z,99349.50
2019-05-05T16:11:34.488Z,99351.34
2019-05-05T16:14:05.218Z,99347.38
2019-05-05T16:16:55.632Z,99347.69
2019-05-05T16:19:46.368Z,99340.77
2019-05-05T16:22:25.497Z,99342.77
2019-05-05T16:25:09.498Z,99336.08
2019-05-05T16:27:45.091Z,99340.86
2019-05-05T16:30:18.182Z,99340.74
2019-05-05T16:32:49.034Z,99334.94
2019-05-05T16:35:20.968Z,99331.59
2019-05-05T16:37:51.581Z,99338.52
2019-05-05T16:40:26.252Z,99341.00
2019-05-05T16:42:58.429Z,99330.59
2019-05-05T16:45:29.726Z,99342.92
2019-05-05T16:48:03.931Z,99337.63
2019-05-05T16:50:36.859Z,99336.27
2019-05-05T16:53:07.794Z,99338.09
2019-05-05T16:56:00.487Z,99341.44
2019-05-05T16:58:31.145Z,99330.73
2019-05-05T17:01:17.173Z,99337.76
2019-05-05T17:03:49.411Z,99343.66
2019-05-05T17:06:20.230Z,99342.79
2019-05-05T17:08:50.963Z,99335.45
2019-05-05T17:11:21.670Z,99341.45
2019-05-05T17:14:09.546Z,99338.65
2019-05-05T17:16:44.216Z,99340.52
2019-05-05T17:19:33.759Z,99338.78
2019-05-05T17:22:08.666Z,99340.68
2019-05-05T17:24:39.378Z,99341.70
2019-05-05T17:27:09.997Z,99343.08
2019-05-05T17:29:40.749Z,99350.72
2019-05-05T17:32:11.356Z,99344.87
2019-05-05T17:34:48.010Z,99347.16
2019-05-05T17:37:20.178Z,99347.31
2019-05-05T17:39:54.569Z,99345.89
2019-05-05T17:42:45.872Z,99339.05
2019-05-05T17:45:20.772Z,99344.38
2019-05-05T17:48:05.162Z,99343.77
2019-05-05T17:50:53.983Z,99335.44
2019-05-05T17:53:38.624Z,99337.74
2019-05-05T17:56:13.599Z,99336.55
2019-05-05T17:58:44.530Z,99332.95
2019-05-05T18:01:17.362Z,99341.78
2019-05-05T18:03:54.886Z,99334.45
2019-05-05T18:06:39.521Z,99337.89
2019-05-05T18:09:29.865Z,99343.88
2019-05-05T18:12:18.483Z,99340.84
2019-05-05T18:14:50.698Z,99340.55
2019-05-05T18:17:21.318Z,99343.75
2019-05-05T18:19:53.673Z,99339.89
2019-05-05T18:22:24.821Z,99340.52
2019-05-05T18:24:56.514Z,99339.57
2019-05-05T18:27:32.049Z,99339.42
2019-05-05T18:30:03.995Z,99338.64
2019-05-05T18:32:36.229Z,99336.38
2019-05-05T18:35:07.117Z,99342.35
2019-05-05T18:37:39.485Z,99336.72
2019-05-05T18:40:10.262Z,99337.84
2019-05-05T18:42:41.957Z,99345.89
2019-05-05T18:45:14.477Z,99340.17
2019-05-05T18:47:45.296Z,99342.03
2019-05-05T18:50:16.680Z,99343.20
2019-05-05T18:52:50.675Z,99344.13
2019-05-05T18:55:21.853Z,99344.03
2019-05-05T18:57:54.139Z,99357.75
2019-05-05T19:00:30.458Z,99358.55
2019-05-05T19:03:17.719Z,99356.22
2019-05-05T19:05:46.806Z,99360.11
2019-05-05T19:08:27.879Z,99358.00
2019-05-05T19:11:03.711Z,99362.27
2019-05-05T19:13:35.096Z,99362.41
2019-05-05T19:16:05.693Z,99357.33
2019-05-05T19:18:36.344Z,99362.91
2019-05-05T19:21:14.605Z,99361.64
2019-05-05T19:23:45.234Z,99359.05
2019-05-05T19:26:15.827Z,99361.44
2019-05-05T19:28:50.028Z,99371.62
2019-05-05T19:31:19.272Z,99369.36
2019-05-05T19:33:50.708Z,99373.06
2019-05-05T19:36:22.607Z,99371.66
2019-05-05T19:38:54.920Z,99372.55
2019-05-05T19:41:29.424Z,99375.13
2019-05-05T19:44:01.867Z,99377.94
2019-05-05T19:46:34.646Z,99377.16
2019-05-05T19:49:16.476Z,99376.62
2019-05-05T19:51:47.797Z,99375.70
2019-05-05T19:54:18.377Z,99372.71
2019-05-05T19:56:49.778Z,99366.28
2019-05-05T19:59:20.617Z,99361.33
2019-05-05T20:01:51.396Z,99371.34
2019-05-05T20:04:24.117Z,99372.30
2019-05-05T20:06:55.019Z,99372.80
2019-05-05T20:09:28.327Z,99372.27
2019-05-05T20:12:00.024Z,99371.27
2019-05-05T20:14:30.808Z,99373.96
2019-05-05T20:17:10.269Z,99379.97
2019-05-05T20:19:43.961Z,99384.11
2019-05-05T20:22:15.463Z,99383.28
2019-05-05T20:24:47.673Z,99393.85
2019-05-05T20:27:18.226Z,99397.88
2019-05-05T20:29:49.177Z,99393.85
2019-05-05T20:32:26.193Z,99391.16
2019-05-05T20:35:10.509Z,99389.81
2019-05-05T20:37:47.411Z,99390.45
2019-05-05T20:40:21.038Z,99391.58
2019-05-05T20:42:54.257Z,99393.87
2019-05-05T20:45:29.159Z,99392.30
2019-05-05T20:47:59.996Z,99392.73
2019-05-05T20:50:34.313Z,99388.47
2019-05-05T20:53:06.639Z,99382.90
2019-05-05T20:55:37.837Z,99381.04
2019-05-05T20:58:08.633Z,99384.45
2019-05-05T21:00:39.309Z,99382.50
2019-05-05T21:03:10.622Z,99386.94
2019-05-05T21:05:41.277Z,99383.61
2019-05-05T21:08:14.116Z,99378.84
2019-05-05T21:10:47.910Z,99382.52
2019-05-05T21:13:18.477Z,99373.78
2019-05-05T21:15:51.106Z,99367.75
2019-05-05T21:18:25.340Z,99371.27
2019-05-05T21:20:57.921Z,99371.56
2019-05-05T21:23:30.467Z,99369.89
2019-05-05T21:26:06.405Z,99364.83
2019-05-05T21:28:37.115Z,99367.11
2019-05-05T21:31:07.734Z,99367.61
2019-05-05T21:33:38.853Z,99362.27
2019-05-05T21:36:09.543Z,99362.27
2019-05-05T21:38:40.142Z,99359.56
2019-05-05T21:41:13.652Z,99356.27
2019-05-05T21:43:44.823Z,99360.30
2019-05-05T21:46:17.877Z,99347.01
2019-05-05T21:48:48.188Z,99345.36
2019-05-05T21:51:27.917Z,99346.88
2019-05-05T21:54:04.435Z,99337.82
2019-05-05T21:56:38.298Z,99339.16
2019-05-05T21:59:08.944Z,99336.04
2019-05-05T22:01:48.999Z,99327.98
2019-05-05T22:04:16.368Z,99334.48
2019-05-05T22:06:46.948Z,99327.18
2019-05-05T22:09:19.212Z,99323.63
2019-05-05T22:11:49.899Z,99324.59
2019-05-05T22:14:25.856Z,99324.47
2019-05-05T22:16:57.074Z,99326.72
2019-05-05T22:19:31.494Z,99331.38
2019-05-05T22:22:10.424Z,99310.42
2019-05-05T22:24:44.410Z,99316.13
2019-05-05T22:27:16.129Z,99306.45
2019-05-05T22:29:46.752Z,99309.61
2019-05-05T22:32:19.293Z,99298.06
2019-05-05T22:34:50.229Z,99297.42
2019-05-05T22:37:23.643Z,99294.98
2019-05-05T22:39:56.618Z,99289.72
2019-05-05T22:42:27.462Z,99282.48
2019-05-05T22:44:58.194Z,99283.00
2019-05-05T22:47:30.025Z,99280.50
2019-05-05T22:50:00.716Z,99280.59
2019-05-05T22:52:34.411Z,99281.45
2019-05-05T22:55:07.467Z,99280.22
2019-05-05T22:57:39.019Z,99281.44
2019-05-05T23:00:25.296Z,99277.23
2019-05-05T23:03:04.452Z,99276.31
2019-05-05T23:05:43.988Z,99274.04
2019-05-05T23:08:18.407Z,99271.45
2019-05-05T23:10:49.204Z,99270.42
2019-05-05T23:13:19.867Z,99267.86
2019-05-05T23:15:55.057Z,99269.22
2019-05-05T23:18:28.650Z,99266.96
2019-05-05T23:21:04.281Z,99257.56
2019-05-05T23:23:36.700Z,99255.81
2019-05-05T23:26:09.029Z,99262.70
2019-05-05T23:28:39.784Z,99263.34
2019-05-05T23:31:16.176Z,99261.67
2019-05-05T23:33:47.240Z,99257.52
2019-05-05T23:36:17.937Z,99263.09
2019-05-05T23:38:48.548Z,99258.02
2019-05-05T23:41:19.180Z,99260.41
2019-05-05T23:43:50.879Z,99252.73
2019-05-05T23:46:24.152Z,99251.09
2019-05-05T23:48:57.764Z,99252.14
2019-05-05T23:51:34.870Z,99252.52
2019-05-05T23:54:07.283Z,99251.39
2019-05-05T23:56:44.162Z,99244.08
2019-05-05T23:59:15.550Z,99244.72
